La Crescenta, California
Current Conditions -  °F | °C
As of 8:53 PM on Wednesday 26 Nov 2014 (Local Time) from KBUR Reporting Station
Clear Clear  
Wind Chill: 18°   Ceiling: Unl
Heat Index: 18°   Visibility: 10mi
Dew Point: -4°   Wind: 0mph
Humidity: 22%   Direction: NA
Pressure: 30.16"   Gusts: NA
Location:  34.22°N, 118.24°W
Report Text: KBUR 270453Z 00000KT 10SM CLR 18/M04 A3016 RMK AO2 SLP202 T01831039
Loading
Personal Weather Stations






























Interactive Weather Map New forecast layout! Learn more

10-Day Weather Forecast

Advertisements
Track Severe Weather on mobile